Time;durP1;ratioP1;P1;durP2;ratioP2;P2;SDS_P1;SDS_P2;PMS_P1;PMS_P2;Temp;Humidity;BMP_temperature;BMP_pressure;BME280_temperature;BME280_humidity;BME280_pressure;Samples;Min_cycle;Max_cycle;Signal;HPM_P1;HPM_P2
2023/04/30 00:00:35;;;;;;;22.50;16.80;;;;;;;11.04;100.00;98890.95;271456;1272;22560;-86
2023/04/30 00:14:58;;;;;;;25.00;18.00;;;;;;;10.99;100.00;98884.98;270810;1273;22416;-87
2023/04/30 00:21:31;;;;;;;24.50;17.20;;;;;;;10.96;100.00;98881.42;272280;1276;22796;-86
2023/04/30 00:27:57;;;;;;;25.50;18.30;;;;;;;10.94;100.00;98886.81;273263;1271;22375;-86
2023/04/30 00:34:04;;;;;;;27.80;18.60;;;;;;;10.96;100.00;98886.83;273180;1269;22209;-85
2023/04/30 00:40:36;;;;;;;;;;;;;;;10.97;100.00;98890.90;273217;1269;22478;-87
2023/04/30 00:46:38;;;;;;;29.10;19.10;;;;;;;10.97;100.00;98891.45;273004;1269;22307;-86
2023/04/30 00:52:56;;;;;;;30.70;19.10;;;;;;;10.97;100.00;98898.80;272927;1269;22265;-86
2023/04/30 00:58:58;;;;;;;23.90;17.60;;;;;;;10.95;100.00;98900.05;273439;1270;23488;-87
2023/04/30 01:12:20;;;;;;;26.00;18.30;;;;;;;10.91;100.00;98900.17;273121;1269;22223;-86
2023/04/30 01:18:48;;;;;;;22.00;17.50;;;;;;;10.89;100.00;98899.91;265544;1269;10139732;-87
2023/04/30 01:25:08;;;;;;;;;;;;;;;10.88;100.00;98898.50;273149;1272;22399;-86
2023/04/30 01:39:02;;;;;;;33.30;22.70;;;;;;;10.84;100.00;98901.91;273400;1272;22270;-86
2023/04/30 01:53:02;;;;;;;31.40;22.00;;;;;;;10.80;100.00;98910.24;272982;1269;22203;-86
2023/04/30 01:59:05;;;;;;;34.50;22.40;;;;;;;10.78;100.00;98910.54;272613;1269;22355;-87
2023/04/30 02:05:17;;;;;;;33.50;21.60;;;;;;;10.75;100.00;98914.19;273178;1272;22194;-86
2023/04/30 02:11:19;;;;;;;33.20;20.80;;;;;;;10.72;100.00;98916.44;272502;1272;22749;-87
2023/04/30 02:17:32;;;;;;;32.20;20.30;;;;;;;10.69;100.00;98921.33;272459;1271;22325;-86
2023/04/30 02:23:34;;;;;;;29.80;18.70;;;;;;;10.65;100.00;98919.80;272393;1266;22443;-88
2023/04/30 02:30:13;;;;;;;30.80;20.30;;;;;;;10.61;100.00;98920.47;272020;1272;22651;-86
2023/04/30 02:37:04;;;;;;;26.20;17.70;;;;;;;10.59;100.00;98925.92;272039;1269;23363;-87
2023/04/30 02:43:07;;;;;;;28.80;18.40;;;;;;;10.56;100.00;98935.90;271309;1269;22606;-87
2023/04/30 02:49:32;;;;;;;32.30;18.70;;;;;;;10.55;100.00;98939.64;272943;1270;22211;-86
2023/04/30 03:03:10;;;;;;;34.10;19.10;;;;;;;10.53;100.00;98945.64;272257;1269;22246;-86
2023/04/30 03:09:12;;;;;;;33.40;20.30;;;;;;;10.51;100.00;98956.34;270942;1273;22349;-86
2023/04/30 03:15:46;;;;;;;36.60;20.40;;;;;;;10.50;100.00;98959.84;271565;1269;22560;-87
2023/04/30 03:21:49;;;;;;;33.00;19.90;;;;;;;10.48;100.00;98958.34;272214;1269;22328;-87
2023/04/30 03:27:52;;;;;;;34.00;21.10;;;;;;;10.47;100.00;98964.35;272063;1270;22354;-86
2023/04/30 03:34:16;;;;;;;34.10;20.60;;;;;;;10.45;100.00;98969.33;273005;1269;23682;-87
2023/04/30 03:40:20;;;;;;;30.50;18.40;;;;;;;10.44;100.00;98970.43;271638;1270;22341;-86
2023/04/30 03:46:46;;;;;;;29.30;18.00;;;;;;;10.44;100.00;98971.98;270849;1270;24221;-86
2023/04/30 03:53:13;;;;;;;26.70;17.00;;;;;;;10.42;100.00;98981.34;271975;1270;23509;-86
2023/04/30 03:59:21;;;;;;;24.40;15.30;;;;;;;10.42;100.00;98987.98;272670;1270;22204;-87
2023/04/30 04:05:23;;;;;;;21.90;13.70;;;;;;;10.41;100.00;98994.31;272334;1260;22330;-87
2023/04/30 04:11:24;;;;;;;19.20;12.30;;;;;;;10.40;100.00;99000.54;272452;1270;22359;-87
2023/04/30 04:17:25;;;;;;;21.10;12.60;;;;;;;10.41;100.00;99004.32;272900;1269;22262;-87
2023/04/30 04:23:33;;;;;;;23.20;14.80;;;;;;;10.41;100.00;99013.08;273558;1273;22255;-87
2023/04/30 04:30:26;;;;;;;24.20;13.90;;;;;;;10.41;100.00;99018.86;272355;1270;23831;-86
2023/04/30 04:36:29;;;;;;;17.70;12.20;;;;;;;10.39;100.00;99025.48;272216;1270;23601;-86
2023/04/30 04:58:08;;;;;;;14.30;10.90;;;;;;;10.29;100.00;99057.01;272671;1264;23040;-88
2023/04/30 05:04:15;;;;;;;12.00;9.60;;;;;;;10.21;100.00;99072.14;273519;1270;22253;-87
2023/04/30 05:11:21;;;;;;;12.30;9.00;;;;;;;10.08;100.00;99085.09;272709;1254;23202;-86
2023/04/30 05:17:23;;;;;;;13.40;8.40;;;;;;;9.95;100.00;99101.59;272169;1269;22856;-87
2023/04/30 05:23:25;;;;;;;11.80;8.40;;;;;;;9.85;100.00;99113.23;270977;1269;23555;-86
2023/04/30 05:29:26;;;;;;;11.30;8.10;;;;;;;9.81;100.00;99127.23;272097;1269;23342;-88
2023/04/30 05:35:29;;;;;;;11.10;8.30;;;;;;;9.75;100.00;99139.48;271037;1269;22327;-87
2023/04/30 05:42:00;;;;;;;9.40;8.40;;;;;;;9.66;100.00;99151.42;273037;1270;22356;-87
2023/04/30 06:03:10;;;;;;;13.20;9.70;;;;;;;9.46;100.00;99201.20;272736;1271;22313;-87
2023/04/30 06:09:43;;;;;;;14.60;10.00;;;;;;;9.31;100.00;99214.80;271837;1264;22549;-88
2023/04/30 06:15:44;;;;;;;15.90;11.20;;;;;;;9.13;100.00;99223.73;272342;1270;23241;-87
2023/04/30 06:22:12;;;;;;;16.00;10.10;;;;;;;9.05;100.00;99231.77;273048;1270;22270;-88
2023/04/30 06:28:38;;;;;;;15.10;10.10;;;;;;;9.01;100.00;99242.05;273204;1270;22241;-87
2023/04/30 06:34:41;;;;;;;18.30;11.00;;;;;;;8.96;100.00;99250.39;272784;1258;22199;-87
2023/04/30 06:41:09;;;;;;;15.60;10.80;;;;;;;8.93;100.00;99256.63;273215;1269;22299;-87
2023/04/30 06:54:18;;;;;;;22.30;14.00;;;;;;;8.91;100.00;99269.06;271808;1269;22323;-88
2023/04/30 07:00:19;;;;;;;22.50;13.90;;;;;;;8.89;100.00;99280.89;270752;1269;23579;-89
2023/04/30 07:07:02;;;;;;;23.90;16.60;;;;;;;8.87;100.00;99285.37;272857;1269;22406;-89
2023/04/30 07:13:03;;;;;;;23.90;16.40;;;;;;;8.88;100.00;99294.20;272487;1269;22180;-87
2023/04/30 07:19:25;;;;;;;28.90;18.50;;;;;;;8.96;100.00;99303.34;271109;1271;25410;-88
2023/04/30 07:25:56;;;;;;;28.10;17.00;;;;;;;9.03;100.00;99298.98;271568;1269;22705;-89
2023/04/30 07:31:57;;;;;;;24.40;17.40;;;;;;;9.25;100.00;99300.54;271315;1269;22425;-88
2023/04/30 07:45:39;;;;;;;20.60;15.10;;;;;;;9.68;100.00;99307.89;273021;1269;22549;-88
2023/04/30 07:51:52;;;;;;;22.00;14.50;;;;;;;10.12;100.00;99310.30;273019;1269;22358;-86
2023/04/30 07:57:56;;;;;;;24.40;14.90;;;;;;;10.70;100.00;99309.63;271454;1267;23917;-87
2023/04/30 08:04:16;;;;;;;19.70;12.40;;;;;;;11.24;100.00;99308.54;271824;1269;22546;-87
2023/04/30 08:10:18;;;;;;;19.90;12.80;;;;;;;11.68;100.00;99313.67;271538;1269;22381;-87
2023/04/30 08:16:58;;;;;;;18.40;11.70;;;;;;;11.91;100.00;99315.35;272736;1269;22562;-87
2023/04/30 08:22:59;;;;;;;15.10;10.90;;;;;;;12.04;100.00;99323.79;271654;1269;22555;-88
2023/04/30 08:29:01;;;;;;;16.90;9.50;;;;;;;12.15;100.00;99323.98;272827;1269;22334;-86
2023/04/30 08:35:06;;;;;;;12.20;8.50;;;;;;;12.34;99.09;99322.84;272704;1269;22582;-84
2023/04/30 08:41:15;;;;;;;15.00;9.00;;;;;;;12.35;98.81;99321.20;272773;1262;24189;-87
2023/04/30 08:47:53;;;;;;;10.50;7.50;;;;;;;12.69;98.50;99323.52;271995;1261;22554;-87
2023/04/30 09:01:38;;;;;;;9.00;5.60;;;;;;;13.19;94.02;99323.03;269576;1272;22240;-85
2023/04/30 09:16:18;;;;;;;6.00;4.50;;;;;;;13.98;92.42;99327.61;272344;1272;22522;-86
2023/04/30 09:22:23;;;;;;;7.00;3.80;;;;;;;14.70;90.42;99328.90;271762;1272;23073;-87
2023/04/30 09:36:12;;;;;;;6.20;3.20;;;;;;;15.60;85.72;99327.58;271158;1269;22704;-86
2023/04/30 09:51:25;;;;;;;5.90;3.00;;;;;;;18.11;80.27;99331.48;272197;1269;22333;-87
2023/04/30 09:57:52;;;;;;;5.90;3.10;;;;;;;18.54;76.32;99324.02;272432;1263;22332;-87
2023/04/30 10:03:57;;;;;;;4.50;2.80;;;;;;;18.21;75.26;99325.20;273305;1269;22445;-86
2023/04/30 10:10:34;;;;;;;7.60;3.40;;;;;;;17.97;74.96;99313.41;273154;1269;22453;-87
2023/04/30 10:17:01;;;;;;;4.70;2.40;;;;;;;18.29;71.63;99309.23;271977;1269;22386;-86
2023/04/30 10:23:28;;;;;;;4.40;2.50;;;;;;;19.11;70.02;99304.66;273140;1271;23189;-87
2023/04/30 10:30:16;;;;;;;5.10;2.10;;;;;;;19.75;67.00;99298.83;272038;1269;22554;-86
2023/04/30 10:36:59;;;;;;;;;;;;;;;;;;;;;
2023/04/30 10:43:38;;;;;;;3.80;2.70;;;;;;;18.76;64.88;99294.90;273152;1269;22220;-87
2023/04/30 10:49:41;;;;;;;;;;;;;;;19.07;62.90;99293.01;272992;1269;23578;-87
2023/04/30 10:56:07;;;;;;;3.20;2.10;;;;;;;19.49;61.67;99288.16;273474;1269;22587;-86
2023/04/30 11:02:42;;;;;;;6.00;2.40;;;;;;;19.37;59.93;99284.75;272631;1269;22363;-86
2023/04/30 11:09:18;;;;;;;5.90;1.90;;;;;;;20.23;59.47;99275.52;272531;1269;22559;-86
2023/04/30 11:15:46;;;;;;;3.90;2.30;;;;;;;20.04;55.87;99276.52;270166;1269;22552;-86
2023/04/30 11:29:45;;;;;;;4.10;2.00;;;;;;;20.41;53.59;99274.52;272735;1269;22238;-86
2023/04/30 11:35:50;;;;;;;3.70;2.20;;;;;;;21.16;53.30;99271.93;272265;1269;22335;-87
2023/04/30 11:42:22;;;;;;;3.90;2.20;;;;;;;21.21;52.61;99277.19;272688;1272;22392;-86
2023/04/30 11:49:21;;;;;;;5.70;2.10;;;;;;;20.58;50.95;99274.16;273153;1269;22429;-86
2023/04/30 12:02:37;;;;;;;4.70;1.90;;;;;;;20.38;48.97;99279.08;273427;1261;22892;-87
2023/04/30 12:16:44;;;;;;;5.70;1.90;;;;;;;19.52;47.05;99282.48;272319;1266;22570;-87
2023/04/30 12:22:57;;;;;;;5.00;2.10;;;;;;;19.53;46.67;99280.55;271770;1269;22502;-86
2023/04/30 12:29:04;;;;;;;3.20;1.70;;;;;;;19.46;45.29;99275.23;271285;1270;22509;-88
2023/04/30 12:35:37;;;;;;;5.70;2.30;;;;;;;19.36;45.54;99268.69;272650;1261;22314;-87
2023/04/30 12:41:59;;;;;;;6.50;2.90;;;;;;;18.97;44.44;99270.19;273300;1269;23581;-87
2023/04/30 12:48:29;;;;;;;4.50;1.80;;;;;;;18.95;45.53;99263.82;272837;1269;22685;-87
2023/04/30 12:54:39;;;;;;;2.80;2.00;;;;;;;18.57;44.05;99258.38;273739;1269;22198;-87
2023/04/30 13:01:36;;;;;;;3.60;1.60;;;;;;;18.71;43.36;99255.13;273568;1273;23358;-87
2023/04/30 13:07:40;;;;;;;6.50;2.00;;;;;;;18.88;42.29;99248.09;273636;1269;23166;-87
2023/04/30 13:14:27;;;;;;;3.40;1.80;;;;;;;19.13;42.16;99245.17;273602;1274;22362;-86
2023/04/30 13:21:44;;;;;;;2.80;1.90;;;;;;;19.01;41.78;99249.60;267575;1278;22643;-87
2023/04/30 13:28:27;;;;;;;4.20;1.70;;;;;;;18.67;41.55;99253.22;271533;1280;23469;-87
2023/04/30 13:34:31;;;;;;;4.40;1.50;;;;;;;18.90;41.53;99250.03;270981;1278;23297;-86
2023/04/30 13:40:58;;;;;;;4.30;1.60;;;;;;;19.01;41.05;99245.08;271615;1281;23738;-88
2023/04/30 13:47:00;;;;;;;3.90;1.70;;;;;;;18.52;40.73;99242.88;271722;1274;22370;-88
2023/04/30 13:53:03;;;;;;;6.70;1.80;;;;;;;18.48;40.84;99244.27;271279;1271;26516;-87
2023/04/30 13:59:19;;;;;;;4.00;1.90;;;;;;;18.62;40.46;99245.80;271546;1275;24473;-87
2023/04/30 14:06:17;;;;;;;3.50;2.10;;;;;;;18.67;40.30;99242.92;273018;1262;23492;-86
2023/04/30 14:20:30;;;;;;;5.20;2.30;;;;;;;18.52;40.53;99240.41;273144;1269;25239;-86
2023/04/30 14:27:05;;;;;;;6.00;1.90;;;;;;;18.11;40.13;99238.84;270679;1269;25567;-87
2023/04/30 14:33:56;;;;;;;3.50;1.90;;;;;;;18.01;40.29;99240.41;272442;1269;22204;-87
2023/04/30 14:40:37;;;;;;;;;;;;;;;;;;;;;
2023/04/30 14:47:10;;;;;;;3.70;1.60;;;;;;;17.86;39.69;99241.33;273579;1271;22240;-88
2023/04/30 15:23:58;;;;;;;3.60;2.00;;;;;;;17.14;39.12;99248.70;272088;1269;22567;-87
2023/04/30 15:30:30;;;;;;;4.20;1.90;;;;;;;17.06;40.05;99250.84;271497;1272;22542;-86
2023/04/30 15:37:21;;;;;;;4.40;1.80;;;;;;;17.02;40.21;99247.66;270551;1269;22626;-87
2023/04/30 15:44:26;;;;;;;3.40;1.80;;;;;;;16.76;39.53;99243.89;273188;1270;22223;-87
2023/04/30 15:58:16;;;;;;;3.90;1.90;;;;;;;16.40;40.44;99246.58;273035;1269;22192;-88
2023/04/30 16:05:17;;;;;;;4.60;1.80;;;;;;;16.28;40.55;99254.55;271998;1270;25418;-88
2023/04/30 16:19:52;;;;;;;5.40;2.00;;;;;;;15.87;40.84;99253.89;271299;1278;22251;-87
2023/04/30 16:25:59;;;;;;;3.70;1.90;;;;;;;15.69;41.09;99252.41;271369;1268;22231;-86
2023/04/30 16:32:55;;;;;;;6.30;2.10;;;;;;;15.54;41.36;99258.09;271307;1277;23506;-88
2023/04/30 16:46:40;;;;;;;6.10;1.70;;;;;;;15.13;41.22;99261.91;271290;1278;22545;-87
2023/04/30 17:01:06;;;;;;;4.10;2.40;;;;;;;14.55;41.57;99275.24;273585;1273;22435;-88
2023/04/30 17:07:15;;;;;;;5.90;2.20;;;;;;;14.21;41.87;99286.45;273065;1271;22270;-88
2023/04/30 17:29:03;;;;;;;11.10;5.20;;;;;;;13.33;41.82;99310.55;272246;1275;22350;-89
2023/04/30 17:35:10;;;;;;;10.50;4.40;;;;;;;13.08;41.96;99325.23;271936;1281;22302;-88
2023/04/30 17:56:30;;;;;;;5.60;2.50;;;;;;;12.35;41.89;99344.02;272814;1270;22544;-87
2023/04/30 18:02:38;;;;;;;5.40;2.00;;;;;;;12.11;41.96;99352.41;272748;1271;22295;-88
2023/04/30 18:08:42;;;;;;;4.80;1.80;;;;;;;11.87;41.99;99361.31;273106;1277;23634;-89
2023/04/30 18:15:09;;;;;;;2.40;1.50;;;;;;;11.70;41.93;99363.93;272965;1273;22297;-87
2023/04/30 18:29:00;;;;;;;7.90;2.60;;;;;;;11.27;43.76;99379.84;273374;1275;23655;-88
2023/04/30 18:51:24;;;;;;;12.10;3.10;;;;;;;10.38;44.88;99394.73;273640;1275;23625;-88
2023/04/30 19:13:35;;;;;;;11.70;4.30;;;;;;;9.44;48.16;99424.46;273445;1269;22665;-88
2023/04/30 19:20:03;;;;;;;14.00;4.60;;;;;;;9.14;48.89;99429.29;273239;1275;22217;-87
2023/04/30 19:26:05;;;;;;;32.00;11.80;;;;;;;8.82;49.47;99427.58;273657;1261;22710;-88
2023/04/30 19:40:23;;;;;;;58.30;20.00;;;;;;;8.23;50.67;99433.81;265378;1269;10002010;-87
2023/04/30 19:47:16;;;;;;;38.60;13.30;;;;;;;7.91;51.72;99441.17;273206;1270;22300;-88
2023/04/30 19:54:13;;;;;;;29.60;11.30;;;;;;;7.59;52.34;99446.23;272283;1270;22675;-89
2023/04/30 20:00:43;;;;;;;34.60;14.60;;;;;;;7.32;53.36;99454.01;272558;1269;22536;-88
2023/04/30 20:06:59;;;;;;;39.70;15.40;;;;;;;7.11;54.38;99458.65;272053;1268;22322;-88
2023/04/30 20:13:56;;;;;;;28.10;12.30;;;;;;;6.92;54.94;99458.73;271812;1270;23674;-87
2023/04/30 20:20:53;;;;;;;24.60;11.90;;;;;;;6.62;54.74;99467.30;273454;1271;23546;-87
2023/04/30 20:26:58;;;;;;;33.80;14.40;;;;;;;6.30;55.61;99477.44;273601;1269;22190;-87
2023/04/30 20:33:30;;;;;;;31.00;13.10;;;;;;;6.12;56.82;99486.81;271105;1269;23113;-86
2023/04/30 20:39:33;;;;;;;37.00;15.30;;;;;;;5.94;57.91;99486.45;272245;1270;22604;-86
2023/04/30 20:45:59;;;;;;;41.30;16.80;;;;;;;5.85;58.83;99486.97;271724;1273;22239;-86
2023/04/30 21:22:46;;;;;;;28.80;11.10;;;;;;;4.80;61.70;99501.69;273616;1269;22184;-87
2023/04/30 21:28:53;;;;;;;32.00;13.10;;;;;;;4.56;61.92;99503.84;273462;1261;22293;-87
2023/04/30 21:35:19;;;;;;;23.50;11.20;;;;;;;4.38;63.22;99510.77;272139;1264;23810;-87
2023/04/30 21:42:10;;;;;;;19.30;9.70;;;;;;;4.31;64.13;99512.05;272470;1276;22263;-87
2023/04/30 21:48:16;;;;;;;21.10;10.00;;;;;;;4.32;65.32;99518.20;272262;1275;22676;-87
2023/04/30 21:54:35;;;;;;;16.70;8.30;;;;;;;4.20;65.59;99523.27;271639;1276;22584;-87
2023/04/30 22:08:03;;;;;;;16.90;7.70;;;;;;;4.02;66.43;99534.08;273640;1270;23185;-88
2023/04/30 22:14:26;;;;;;;14.90;8.10;;;;;;;3.93;67.52;99536.05;272892;1269;22359;-87
2023/04/30 22:20:54;;;;;;;21.00;9.10;;;;;;;3.74;67.14;99536.14;272732;1269;22385;-87
2023/04/30 22:27:44;;;;;;;21.70;8.90;;;;;;;3.55;67.83;99546.89;272547;1269;22168;-86
2023/04/30 22:34:21;;;;;;;14.30;8.60;;;;;;;3.46;68.81;99555.64;271011;1271;22556;-86
2023/04/30 22:40:49;;;;;;;;;;;;;;;3.41;70.05;99558.82;271497;1270;22504;-86
2023/04/30 22:54:46;;;;;;;21.30;9.10;;;;;;;3.23;71.30;99561.98;273245;1269;23106;-87
2023/04/30 23:00:54;;;;;;;16.20;8.90;;;;;;;3.12;71.59;99559.45;272836;1269;22557;-86
2023/04/30 23:07:55;;;;;;;15.30;8.20;;;;;;;2.99;71.40;99567.30;271784;1270;23651;-87
2023/04/30 23:22:39;;;;;;;17.80;8.60;;;;;;;2.78;72.82;99570.93;271438;1269;22200;-87
2023/04/30 23:30:13;;;;;;;18.40;9.50;;;;;;;2.66;72.89;99571.67;271728;1269;22597;-86
2023/04/30 23:36:43;;;;;;;15.80;8.90;;;;;;;2.53;73.46;99575.48;271539;1269;22471;-87
2023/04/30 23:42:49;;;;;;;17.80;8.70;;;;;;;2.42;74.03;99574.00;270494;1269;22543;-86
2023/04/30 23:48:55;;;;;;;20.70;9.70;;;;;;;2.34;74.66;99580.31;272231;1270;23137;-87
2023/04/30 23:56:36;;;;;;;18.70;8.70;;;;;;;2.27;74.78;99585.49;270120;1277;23271;-87
